Time;durP1;ratioP1;P1;durP2;ratioP2;P2;SDS_P1;SDS_P2;PMS_P1;PMS_P2;Temp;Humidity;BMP_temperature;BMP_pressure;BME280_temperature;BME280_humidity;BME280_pressure;Samples;Min_cycle;Max_cycle;Signal;HPM_P1;HPM_P2
2022/05/23 00:01:19;;;;;;;4.67;4.47;;;24.30;64.10;;;;;;5051861;28;20452;-64
2022/05/23 00:03:45;;;;;;;4.30;4.10;;;24.20;64.10;;;;;;5052062;28;20502;-64
2022/05/23 00:06:18;;;;;;;3.70;3.50;;;24.20;64.00;;;;;;5052226;28;20479;-64
2022/05/23 00:08:45;;;;;;;4.10;3.90;;;24.20;64.80;;;;;;5051927;28;20440;-64
2022/05/23 00:11:12;;;;;;;3.90;3.63;;;24.20;64.00;;;;;;5052197;28;20452;-64
2022/05/23 00:13:38;;;;;;;4.23;4.03;;;24.20;63.80;;;;;;5051947;28;20943;-64
2022/05/23 00:16:07;;;;;;;3.80;3.60;;;24.20;63.50;;;;;;5052181;28;20457;-64
2022/05/23 00:18:34;;;;;;;3.53;3.33;;;24.20;63.40;;;;;;5051729;28;20448;-64
2022/05/23 00:21:01;;;;;;;3.50;3.30;;;24.20;63.20;;;;;;5052052;28;20966;-64
2022/05/23 00:23:29;;;;;;;3.60;3.50;;;24.20;63.10;;;;;;5051825;28;20463;-64
2022/05/23 00:25:55;;;;;;;4.37;4.07;;;24.20;63.00;;;;;;5051467;28;20495;-64
2022/05/23 00:28:22;;;;;;;3.83;3.63;;;24.10;63.10;;;;;;5051491;28;20451;-64
2022/05/23 00:30:49;;;;;;;4.13;4.03;;;24.10;62.90;;;;;;5051644;28;20436;-64
2022/05/23 00:36:00;;;;;;;4.10;3.80;;;24.20;62.70;;;;;;5049936;28;21010;-64
2022/05/23 00:38:26;;;;;;;3.80;3.60;;;24.10;62.40;;;;;;5051247;28;20444;-64
2022/05/23 00:43:41;;;;;;;3.57;3.37;;;24.10;61.90;;;;;;5050464;28;20436;-64
2022/05/23 00:46:07;;;;;;;3.47;3.30;;;24.10;61.80;;;;;;5050787;28;20480;-64
2022/05/23 00:48:34;;;;;;;3.60;3.50;;;24.10;61.60;;;;;;5051189;28;20452;-64
2022/05/23 00:51:04;;;;;;;3.90;3.70;;;24.10;61.30;;;;;;5051586;28;20444;-64
2022/05/23 00:53:34;;;;;;;3.47;3.37;;;24.10;61.50;;;;;;5051168;28;20452;-64
2022/05/23 00:56:02;;;;;;;4.70;4.40;;;24.10;61.30;;;;;;5050063;28;20467;-64
2022/05/23 00:58:36;;;;;;;4.07;3.80;;;24.10;61.30;;;;;;5050984;28;20448;-64
2022/05/23 01:01:07;;;;;;;3.60;3.50;;;24.10;61.30;;;;;;5051214;28;20455;-64
2022/05/23 01:03:34;;;;;;;3.33;3.23;;;24.10;61.20;;;;;;5050917;28;20459;-64
2022/05/23 01:06:01;;;;;;;3.93;3.73;;;24.10;61.20;;;;;;5050988;28;20507;-64
2022/05/23 01:08:28;;;;;;;3.40;3.30;;;24.00;60.90;;;;;;5050661;28;20444;-64
2022/05/23 01:10:55;;;;;;;3.63;3.50;;;24.00;60.80;;;;;;5051410;28;20785;-64
2022/05/23 01:13:23;;;;;;;3.60;3.33;;;24.10;60.90;;;;;;5051361;28;20448;-64
2022/05/23 01:15:51;;;;;;;3.20;3.10;;;24.00;60.70;;;;;;5051233;28;20460;-64
2022/05/23 01:18:18;;;;;;;3.63;3.50;;;24.00;61.00;;;;;;5050769;28;20444;-64
2022/05/23 01:20:45;;;;;;;3.47;3.27;;;24.10;61.00;;;;;;5051107;28;20448;-64
2022/05/23 01:23:27;;;;;;;3.30;3.20;;;24.00;60.90;;;;;;5051048;28;20440;-64
2022/05/23 01:25:56;;;;;;;3.83;3.57;;;24.00;61.20;;;;;;5051001;28;20493;-64
2022/05/23 01:28:23;;;;;;;3.17;2.97;;;24.00;61.00;;;;;;5050743;28;20539;-64
2022/05/23 01:30:50;;;;;;;3.30;3.20;;;24.00;61.30;;;;;;5050965;28;20444;-64
2022/05/23 01:33:17;;;;;;;4.60;3.33;;;24.00;61.30;;;;;;5050936;28;20448;-64
2022/05/23 01:35:44;;;;;;;3.33;3.23;;;24.00;61.60;;;;;;5050909;28;20469;-64
2022/05/23 01:38:11;;;;;;;4.60;4.30;;;24.00;61.80;;;;;;5050624;28;20448;-64
2022/05/23 01:40:38;;;;;;;3.30;3.20;;;24.00;61.60;;;;;;5051027;28;20966;-64
2022/05/23 01:43:06;;;;;;;2.87;2.77;;;23.90;61.50;;;;;;5050797;28;20950;-64
2022/05/23 01:45:36;;;;;;;3.20;3.10;;;23.90;61.40;;;;;;5051010;28;20464;-64
2022/05/23 01:48:04;;;;;;;4.10;3.90;;;23.90;61.40;;;;;;5053989;28;20843;-64
2022/05/23 01:50:31;;;;;;;3.47;3.37;;;23.90;61.40;;;;;;5054703;28;20448;-64
2022/05/23 01:52:58;;;;;;;3.50;3.40;;;23.90;61.40;;;;;;5054503;28;21041;-64
2022/05/23 01:55:25;;;;;;;3.27;3.20;;;23.90;61.20;;;;;;5054605;28;20472;-64
2022/05/23 01:57:52;;;;;;;3.20;3.10;;;23.90;61.20;;;;;;5054425;28;20444;-64
2022/05/23 02:03:06;;;;;;;3.87;3.77;;;23.90;61.00;;;;;;5054280;28;20446;-64
2022/05/23 02:05:33;;;;;;;3.50;3.30;;;23.90;60.90;;;;;;5054331;28;20464;-64
2022/05/23 02:08:00;;;;;;;3.53;3.43;;;23.90;61.00;;;;;;5053768;28;21030;-64
2022/05/23 02:10:28;;;;;;;3.13;3.03;;;23.90;60.70;;;;;;5054212;28;20950;-64
2022/05/23 02:12:56;;;;;;;3.47;3.37;;;23.90;60.80;;;;;;5054321;28;20525;-64
2022/05/23 02:15:24;;;;;;;3.90;3.70;;;23.90;60.90;;;;;;5054598;28;21017;-64
2022/05/23 02:17:51;;;;;;;3.77;3.57;;;23.90;60.80;;;;;;5053960;28;20445;-64
2022/05/23 02:20:18;;;;;;;3.37;3.27;;;23.80;60.60;;;;;;5054638;28;20440;-64
2022/05/23 02:22:45;;;;;;;3.63;3.50;;;23.80;60.40;;;;;;5054085;28;20455;-64
2022/05/23 02:25:11;;;;;;;3.37;3.27;;;23.90;60.40;;;;;;5053863;28;20464;-64
2022/05/23 02:27:38;;;;;;;4.17;3.77;;;23.90;60.40;;;;;;5053652;28;20480;-64
2022/05/23 02:30:07;;;;;;;3.83;3.73;;;23.80;60.40;;;;;;5053884;28;20459;-64
2022/05/23 02:32:35;;;;;;;3.13;3.03;;;23.80;60.30;;;;;;5053902;28;20454;-64
2022/05/23 02:35:02;;;;;;;3.30;3.20;;;23.80;60.20;;;;;;5053820;28;20455;-64
2022/05/23 02:37:28;;;;;;;4.20;3.80;;;23.80;60.50;;;;;;5053552;28;20536;-64
2022/05/23 02:39:55;;;;;;;3.27;3.00;;;23.80;60.40;;;;;;5053649;28;20777;-64
2022/05/23 02:42:22;;;;;;;3.73;3.53;;;23.80;60.40;;;;;;5053425;28;20453;-64
2022/05/23 02:44:49;;;;;;;3.67;3.53;;;23.80;60.60;;;;;;5050639;28;20444;-64
2022/05/23 02:47:15;;;;;;;3.83;3.53;;;23.80;60.70;;;;;;5053542;28;20480;-64
2022/05/23 02:49:44;;;;;;;3.63;3.43;;;23.80;60.40;;;;;;5053486;28;20510;-64
2022/05/23 02:52:10;;;;;;;3.27;3.17;;;23.80;60.30;;;;;;5053455;28;20441;-64
2022/05/23 02:54:37;;;;;;;4.03;3.70;;;23.80;60.40;;;;;;5053995;28;20444;-64
2022/05/23 02:57:04;;;;;;;3.30;3.20;;;23.80;60.30;;;;;;5052241;28;20464;-64
2022/05/23 02:59:31;;;;;;;3.57;3.40;;;23.80;60.20;;;;;;5053677;28;20447;-64
2022/05/23 03:04:44;;;;;;;3.53;3.33;;;23.80;60.30;;;;;;5053677;28;20913;-64
2022/05/23 03:07:11;;;;;;;3.73;3.53;;;23.80;60.20;;;;;;5052703;28;20900;-64
2022/05/23 03:09:38;;;;;;;3.77;3.67;;;23.70;60.00;;;;;;5053110;28;20822;-64
2022/05/23 03:12:06;;;;;;;4.10;3.90;;;23.70;59.90;;;;;;5052967;28;20449;-64
2022/05/23 03:14:33;;;;;;;3.60;3.40;;;23.80;59.80;;;;;;5053398;28;20471;-64
2022/05/23 03:17:03;;;;;;;4.47;3.97;;;23.80;59.90;;;;;;5052994;28;20464;-64
2022/05/23 03:19:30;;;;;;;4.33;4.13;;;23.70;60.00;;;;;;5053220;28;20444;-64
2022/05/23 03:27:38;;;;;;;5.10;4.80;;;23.70;60.00;;;;;;4998992;28;20506;-65
2022/05/23 03:30:07;;;;;;;3.80;3.60;;;23.70;60.00;;;;;;5037723;28;20475;-64
2022/05/23 03:32:34;;;;;;;3.73;3.53;;;23.70;59.80;;;;;;5052929;28;20450;-64
2022/05/23 03:35:01;;;;;;;4.13;3.83;;;23.70;59.70;;;;;;5052835;28;20448;-64
2022/05/23 03:37:29;;;;;;;3.93;3.80;;;23.70;59.70;;;;;;5052546;28;20788;-64
2022/05/23 03:39:56;;;;;;;4.10;3.90;;;23.70;59.80;;;;;;5052500;28;20435;-64
2022/05/23 03:42:22;;;;;;;3.57;3.47;;;23.70;59.90;;;;;;5052618;28;20448;-64
2022/05/23 03:44:49;;;;;;;3.40;3.30;;;23.70;60.00;;;;;;5052651;28;20459;-64
2022/05/23 03:47:16;;;;;;;3.67;3.47;;;23.70;60.50;;;;;;5052241;28;20491;-64
2022/05/23 03:49:43;;;;;;;3.90;3.70;;;23.70;60.10;;;;;;5052572;28;20444;-64
2022/05/23 03:52:10;;;;;;;8.73;3.97;;;23.70;60.40;;;;;;5052278;28;20819;-64
2022/05/23 03:54:38;;;;;;;3.40;3.30;;;23.60;60.50;;;;;;5052252;28;20455;-64
2022/05/23 03:57:05;;;;;;;3.97;3.77;;;23.70;60.70;;;;;;5051966;28;20475;-64
2022/05/23 03:59:32;;;;;;;3.50;3.40;;;23.70;60.50;;;;;;5052418;28;20447;-64
2022/05/23 04:02:00;;;;;;;3.63;3.43;;;23.70;60.50;;;;;;5051848;28;20448;-64
2022/05/23 04:04:29;;;;;;;3.87;3.77;;;23.70;60.50;;;;;;5052361;28;20454;-64
2022/05/23 04:07:00;;;;;;;3.77;3.60;;;23.70;60.60;;;;;;5051679;28;20491;-64
2022/05/23 04:09:27;;;;;;;4.20;3.93;;;23.60;60.80;;;;;;5051063;28;20444;-64
2022/05/23 04:11:55;;;;;;;4.00;3.90;;;23.60;60.80;;;;;;5052040;28;20440;-64
2022/05/23 04:14:22;;;;;;;3.97;3.87;;;23.60;60.90;;;;;;5052432;28;20936;-63
2022/05/23 04:16:50;;;;;;;4.10;3.90;;;23.60;61.10;;;;;;5051635;28;20893;-63
2022/05/23 04:19:17;;;;;;;3.93;3.83;;;23.60;61.10;;;;;;5051745;28;20460;-63
2022/05/23 04:21:46;;;;;;;3.87;3.77;;;23.60;61.00;;;;;;5051664;28;20455;-63
2022/05/23 04:24:15;;;;;;;4.00;3.80;;;23.60;61.00;;;;;;5052042;28;20451;-63
2022/05/23 04:26:42;;;;;;;4.03;3.83;;;23.60;61.30;;;;;;5051951;28;20476;-64
2022/05/23 04:29:10;;;;;;;3.77;3.50;;;23.60;61.60;;;;;;5051103;28;20448;-63
2022/05/23 04:31:37;;;;;;;3.70;3.50;;;23.60;61.70;;;;;;5051321;28;20947;-63
2022/05/23 04:36:50;;;;;;;3.80;3.50;;;23.60;61.80;;;;;;5051368;28;20454;-63
2022/05/23 04:39:17;;;;;;;3.80;3.60;;;23.60;61.70;;;;;;5051362;28;21037;-63
2022/05/23 04:41:43;;;;;;;5.90;5.30;;;23.60;62.20;;;;;;5051477;28;20440;-63
2022/05/23 04:44:11;;;;;;;6.93;6.23;;;23.60;63.90;;;;;;5049894;28;20451;-64
2022/05/23 04:49:39;;;;;;;6.80;4.47;;;23.60;65.20;;;;;;5051199;28;20461;-64
2022/05/23 04:49:41;;;;;;;7.10;4.37;;;23.60;65.30;;;;;;5051843;28;20523;-62
2022/05/23 04:52:08;;;;;;;4.50;4.17;;;23.70;65.00;;;;;;5051598;28;20435;-63
2022/05/23 04:54:35;;;;;;;5.93;5.27;;;23.70;64.80;;;;;;5051147;28;20444;-63
2022/05/23 04:57:02;;;;;;;7.73;5.27;;;23.70;64.70;;;;;;5051379;28;20871;-63
2022/05/23 04:59:31;;;;;;;4.70;4.40;;;23.60;64.50;;;;;;5051476;28;20451;-64
2022/05/23 05:01:57;;;;;;;5.50;5.00;;;23.70;64.50;;;;;;5051505;28;20448;-63
2022/05/23 05:04:24;;;;;;;4.03;3.73;;;23.70;64.50;;;;;;5051461;28;20827;-63
2022/05/23 05:06:51;;;;;;;4.40;4.10;;;23.70;64.30;;;;;;5051101;28;20971;-64
2022/05/23 05:09:17;;;;;;;4.23;3.90;;;23.70;64.30;;;;;;5051358;28;20448;-63
2022/05/23 05:11:44;;;;;;;5.57;4.70;;;23.70;65.00;;;;;;5051590;28;20440;-63
2022/05/23 05:14:11;;;;;;;5.00;4.50;;;23.70;64.30;;;;;;5051479;28;20447;-63
2022/05/23 05:16:39;;;;;;;4.60;4.20;;;23.70;64.20;;;;;;5051294;28;20975;-63
2022/05/23 05:19:06;;;;;;;5.13;4.30;;;23.70;64.10;;;;;;5051130;28;20993;-63
2022/05/23 05:21:33;;;;;;;5.27;4.83;;;23.70;64.00;;;;;;5054175;28;20811;-63
2022/05/23 05:24:00;;;;;;;3.70;3.50;;;23.70;64.00;;;;;;5055277;28;20935;-63
2022/05/23 05:26:26;;;;;;;4.23;3.93;;;23.70;63.90;;;;;;5055173;28;20847;-63
2022/05/23 05:28:54;;;;;;;4.43;4.17;;;23.70;63.90;;;;;;5054970;28;20487;-64
2022/05/23 05:31:25;;;;;;;4.60;4.30;;;23.70;63.90;;;;;;5055237;28;20889;-63
2022/05/23 05:33:57;;;;;;;3.97;3.77;;;23.70;64.00;;;;;;5055312;28;20452;-63
2022/05/23 05:36:30;;;;;;;3.63;3.53;;;23.80;63.80;;;;;;5055091;28;20465;-63
2022/05/23 05:39:01;;;;;;;3.80;3.60;;;23.70;63.70;;;;;;5055049;28;20448;-62
2022/05/23 05:41:31;;;;;;;3.83;3.70;;;23.70;63.70;;;;;;5055040;28;20443;-63
2022/05/23 05:44:02;;;;;;;3.53;3.33;;;23.70;63.70;;;;;;5054924;28;20447;-63
2022/05/23 05:46:34;;;;;;;4.57;4.37;;;23.70;63.60;;;;;;5054990;28;20464;-63
2022/05/23 05:49:05;;;;;;;3.53;3.43;;;23.70;63.60;;;;;;5054666;28;20855;-64
2022/05/23 05:51:34;;;;;;;3.60;3.40;;;23.70;63.70;;;;;;5054912;28;20562;-63
2022/05/23 05:54:01;;;;;;;3.67;3.57;;;23.80;63.70;;;;;;5054814;28;20447;-63
2022/05/23 05:56:28;;;;;;;3.67;3.47;;;23.70;63.50;;;;;;5054950;28;20506;-63
2022/05/23 05:58:55;;;;;;;3.83;3.63;;;23.70;63.40;;;;;;5054834;28;20432;-63
2022/05/23 06:01:22;;;;;;;5.60;5.30;;;23.70;63.30;;;;;;5054675;28;20452;-63
2022/05/23 06:03:48;;;;;;;3.57;3.37;;;23.70;63.30;;;;;;5054660;28;20444;-63
2022/05/23 06:11:45;;;;;;;4.27;4.07;;;23.70;63.40;;;;;;5054656;28;20415;-63
2022/05/23 06:14:12;;;;;;;3.30;3.10;;;23.70;63.30;;;;;;5054588;28;20451;-63
2022/05/23 06:16:39;;;;;;;3.57;3.47;;;23.70;63.30;;;;;;5054376;28;20478;-64
2022/05/23 06:19:06;;;;;;;3.53;3.43;;;23.70;63.20;;;;;;5054217;28;20539;-63
2022/05/23 06:21:34;;;;;;;4.10;3.90;;;23.70;63.30;;;;;;5054311;28;20454;-64
2022/05/23 06:24:01;;;;;;;3.43;3.33;;;23.70;63.20;;;;;;5054192;28;20931;-63
2022/05/23 06:26:28;;;;;;;3.87;3.70;;;23.70;63.40;;;;;;5054372;28;20502;-63
2022/05/23 06:28:55;;;;;;;3.33;3.23;;;23.80;63.40;;;;;;5053904;28;20487;-64
2022/05/23 06:31:22;;;;;;;3.43;3.33;;;23.80;63.40;;;;;;5054154;28;20440;-63
2022/05/23 06:33:49;;;;;;;3.53;3.43;;;23.80;63.40;;;;;;5053429;28;20819;-64
2022/05/23 06:36:18;;;;;;;3.27;3.17;;;23.80;63.40;;;;;;5053945;28;20986;-63
2022/05/23 06:38:47;;;;;;;3.20;3.10;;;23.80;63.40;;;;;;5053862;28;20506;-63
2022/05/23 06:41:14;;;;;;;4.07;3.87;;;23.70;63.20;;;;;;5054049;28;20443;-64
2022/05/23 06:43:43;;;;;;;3.40;3.30;;;23.80;63.40;;;;;;5053885;28;20448;-63
2022/05/23 06:46:10;;;;;;;4.13;3.93;;;23.80;63.40;;;;;;5053733;28;20475;-63
2022/05/23 06:48:38;;;;;;;3.67;3.57;;;23.80;63.30;;;;;;5053593;28;21009;-63
2022/05/23 06:51:06;;;;;;;3.70;3.57;;;23.80;63.40;;;;;;5053894;28;20440;-63
2022/05/23 06:53:34;;;;;;;3.50;3.40;;;23.80;63.40;;;;;;5053722;28;20445;-63
2022/05/23 06:56:02;;;;;;;3.70;3.60;;;23.80;63.30;;;;;;5053646;28;20525;-63
2022/05/23 06:58:28;;;;;;;3.50;3.40;;;23.80;63.40;;;;;;5053478;28;20807;-63
2022/05/23 07:00:55;;;;;;;4.37;4.17;;;23.80;63.40;;;;;;5053635;28;20551;-63
2022/05/23 07:03:23;;;;;;;3.40;3.30;;;23.80;63.40;;;;;;5053602;28;20447;-63
2022/05/23 07:14:05;;;;;;;3.20;3.03;;;23.80;63.60;;;;;;5053604;28;20462;-63
2022/05/23 07:16:33;;;;;;;4.00;3.90;;;23.80;63.60;;;;;;5053282;28;20470;-63
2022/05/23 07:19:00;;;;;;;3.33;3.23;;;23.80;63.70;;;;;;5052862;28;20451;-64
2022/05/23 07:21:27;;;;;;;3.60;3.50;;;23.80;63.70;;;;;;5053555;28;20456;-63
2022/05/23 07:23:55;;;;;;;3.73;3.53;;;23.80;63.90;;;;;;5053427;28;20441;-63
2022/05/23 07:26:23;;;;;;;4.27;4.07;;;23.70;63.70;;;;;;5053064;28;20483;-63
2022/05/23 07:28:50;;;;;;;3.10;3.00;;;23.70;63.80;;;;;;5052810;28;20502;-63
2022/05/23 07:31:18;;;;;;;3.70;3.60;;;23.80;63.80;;;;;;5053031;28;20452;-63
2022/05/23 07:33:46;;;;;;;3.67;3.57;;;23.70;63.50;;;;;;5052951;28;20445;-64
2022/05/23 07:36:13;;;;;;;3.93;3.73;;;23.80;63.70;;;;;;5053026;28;20805;-64
2022/05/23 07:38:40;;;;;;;3.77;3.67;;;23.80;63.70;;;;;;5052674;28;20440;-63
2022/05/23 07:41:09;;;;;;;4.43;4.20;;;23.80;63.80;;;;;;5053035;28;20527;-64
2022/05/23 07:43:39;;;;;;;4.20;4.03;;;23.80;63.80;;;;;;5052713;28;20449;-63
2022/05/23 07:46:09;;;;;;;3.20;3.10;;;23.80;63.70;;;;;;5052687;28;20499;-64
2022/05/23 07:48:37;;;;;;;3.93;3.83;;;23.80;63.70;;;;;;5052728;28;20487;-63
2022/05/23 07:51:04;;;;;;;4.33;4.23;;;23.70;63.50;;;;;;5052619;28;20444;-63
2022/05/23 08:01:47;;;;;;;3.43;3.20;;;23.80;63.50;;;;;;5052855;28;20432;-64
2022/05/23 08:04:13;;;;;;;3.60;3.50;;;23.80;63.70;;;;;;5052431;28;20967;-63
2022/05/23 08:06:40;;;;;;;3.87;3.77;;;23.70;63.50;;;;;;5052453;28;20468;-63
2022/05/23 08:09:09;;;;;;;3.60;3.50;;;23.80;63.70;;;;;;5052056;28;20491;-63
2022/05/23 08:11:36;;;;;;;3.90;3.80;;;23.80;63.50;;;;;;5052247;28;20463;-64
2022/05/23 08:14:04;;;;;;;3.97;3.80;;;23.80;63.50;;;;;;5052147;28;20451;-63
2022/05/23 08:16:31;;;;;;;4.00;3.80;;;23.80;63.60;;;;;;5052110;28;20464;-63
2022/05/23 08:18:58;;;;;;;3.73;3.60;;;23.80;63.60;;;;;;5051962;28;20444;-63
2022/05/23 08:21:25;;;;;;;4.27;4.17;;;23.80;63.70;;;;;;5052042;28;20535;-63
2022/05/23 08:23:52;;;;;;;3.80;3.70;;;23.80;63.60;;;;;;5052318;28;20478;-64
2022/05/23 08:26:19;;;;;;;5.80;5.33;;;23.80;64.60;;;;;;5051985;28;20476;-63
2022/05/23 08:28:46;;;;;;;3.60;3.50;;;23.80;63.60;;;;;;5051665;28;20490;-64
2022/05/23 08:31:14;;;;;;;5.17;4.80;;;23.80;63.70;;;;;;5051956;28;20555;-63
2022/05/23 08:33:41;;;;;;;3.83;3.63;;;23.80;63.80;;;;;;5051830;28;20471;-64
2022/05/23 08:36:10;;;;;;;3.97;3.87;;;23.80;63.70;;;;;;5051720;28;20475;-64
2022/05/23 08:38:36;;;;;;;4.13;3.93;;;23.80;63.70;;;;;;5051712;28;20448;-63
2022/05/23 08:41:12;;;;;;;3.83;3.73;;;23.80;63.80;;;;;;5052024;28;20440;-63
2022/05/23 08:43:44;;;;;;;4.43;4.23;;;23.80;63.90;;;;;;5051780;28;20447;-63
2022/05/23 08:46:18;;;;;;;4.40;4.17;;;23.80;63.80;;;;;;5051563;28;20472;-63
2022/05/23 08:48:53;;;;;;;4.30;4.20;;;23.80;63.90;;;;;;5051323;28;21002;-64
2022/05/23 08:51:28;;;;;;;4.17;3.97;;;23.80;63.90;;;;;;5051710;28;20470;-64
2022/05/23 08:54:00;;;;;;;5.70;5.30;;;23.80;64.20;;;;;;5051687;28;20475;-63
2022/05/23 08:56:32;;;;;;;4.07;3.97;;;23.80;64.90;;;;;;5051000;28;20475;-63
2022/05/23 08:59:01;;;;;;;4.80;4.53;;;23.80;64.10;;;;;;5051397;28;20440;-65
2022/05/23 09:01:39;;;;;;;4.27;4.17;;;23.80;64.10;;;;;;5051507;28;20444;-63
2022/05/23 09:04:13;;;;;;;4.67;4.50;;;23.80;64.10;;;;;;5051521;28;20919;-63
2022/05/23 09:06:46;;;;;;;4.03;3.93;;;23.80;64.10;;;;;;5051488;28;20460;-63
2022/05/23 09:09:17;;;;;;;4.13;3.93;;;23.80;64.10;;;;;;5051278;28;20483;-63
2022/05/23 09:11:45;;;;;;;4.27;4.17;;;23.90;64.50;;;;;;5051476;28;20447;-63
2022/05/23 09:14:14;;;;;;;3.77;3.60;;;23.90;64.50;;;;;;5051446;28;20452;-63
2022/05/23 09:16:45;;;;;;;4.43;4.33;;;23.90;64.50;;;;;;5051142;28;20472;-64
2022/05/23 09:19:19;;;;;;;4.70;4.50;;;23.90;64.50;;;;;;5051281;28;20444;-63
2022/05/23 09:24:38;;;;;;;4.93;4.73;;;23.90;64.80;;;;;;5051390;28;20419;-63
2022/05/23 09:27:14;;;;;;;4.30;4.20;;;23.90;64.80;;;;;;5050964;28;20478;-63
2022/05/23 09:29:40;;;;;;;4.40;4.20;;;23.90;64.90;;;;;;5051176;28;20479;-62
2022/05/23 09:32:13;;;;;;;3.80;3.70;;;23.90;64.90;;;;;;5051099;28;20455;-63
2022/05/23 09:34:46;;;;;;;4.67;4.57;;;23.90;65.10;;;;;;5051205;28;20444;-64
2022/05/23 09:37:20;;;;;;;3.73;3.63;;;23.90;65.00;;;;;;5050964;28;20471;-63
2022/05/23 09:39:52;;;;;;;4.30;4.00;;;23.90;65.00;;;;;;5051086;28;20447;-63
2022/05/23 09:48:10;;;;;;;3.97;3.87;;;24.00;65.30;;;;;;5050870;28;20504;-64
2022/05/23 09:50:41;;;;;;;3.50;3.47;;;23.90;65.40;;;;;;5051148;28;20454;-63
2022/05/23 09:53:20;;;;;;;4.10;4.00;;;23.90;65.60;;;;;;5051028;28;20444;-63
2022/05/23 09:55:48;;;;;;;3.57;3.47;;;23.90;65.40;;;;;;5050904;28;20547;-63
2022/05/23 09:58:23;;;;;;;4.17;4.07;;;23.90;65.20;;;;;;5050741;28;20452;-63
2022/05/23 10:01:01;;;;;;;3.60;3.50;;;23.90;65.60;;;;;;5050877;28;20447;-64
2022/05/23 10:03:31;;;;;;;4.00;3.83;;;23.90;65.60;;;;;;5051150;28;20444;-63
2022/05/23 10:06:11;;;;;;;4.00;3.90;;;23.90;65.60;;;;;;5051022;28;20822;-63
2022/05/23 10:08:40;;;;;;;4.00;3.90;;;24.00;65.50;;;;;;5053333;28;21014;-63
2022/05/23 10:11:19;;;;;;;3.77;3.67;;;24.00;65.60;;;;;;5054538;28;20443;-65
2022/05/23 10:13:51;;;;;;;4.40;4.20;;;23.90;65.60;;;;;;5054603;28;20448;-64
2022/05/23 10:16:24;;;;;;;3.57;3.40;;;24.00;65.80;;;;;;5054366;28;20962;-63
2022/05/23 10:18:56;;;;;;;3.87;3.77;;;24.00;65.80;;;;;;5054229;28;20931;-63
2022/05/23 10:21:31;;;;;;;4.10;3.90;;;24.00;65.80;;;;;;5054752;28;20440;-63
2022/05/23 10:24:08;;;;;;;3.83;3.73;;;24.00;65.90;;;;;;5054401;28;20447;-63
2022/05/23 10:26:43;;;;;;;3.90;3.80;;;24.00;65.80;;;;;;5098404;22;20493;-67
2022/05/23 10:29:16;;;;;;;3.80;3.70;;;24.00;65.80;;;;;;5094181;28;20477;-68
2022/05/23 10:31:47;;;;;;;4.30;4.10;;;24.00;65.80;;;;;;5094468;28;20446;-68
2022/05/23 10:34:32;;;;;;;3.87;3.77;;;24.00;65.80;;;;;;5094472;28;20449;-68
2022/05/23 10:37:00;;;;;;;3.57;3.47;;;24.00;65.90;;;;;;5080439;28;20463;-68
2022/05/23 10:42:21;;;;;;;3.90;3.80;;;24.10;66.00;;;;;;5042767;28;21011;-68
2022/05/23 10:45:06;;;;;;;3.30;3.20;;;24.10;66.10;;;;;;5073969;28;20817;-68
2022/05/23 10:47:43;;;;;;;3.80;3.70;;;24.10;66.40;;;;;;5073768;28;20451;-67
2022/05/23 10:50:19;;;;;;;3.70;3.60;;;24.10;66.30;;;;;;5074061;28;20482;-67
2022/05/23 10:52:53;;;;;;;4.07;3.90;;;24.10;66.30;;;;;;5073813;28;20933;-68
2022/05/23 10:55:27;;;;;;;3.70;3.60;;;24.10;66.90;;;;;;5073756;28;20454;-69
2022/05/23 10:58:05;;;;;;;4.30;4.20;;;24.10;66.50;;;;;;5073631;28;20446;-68
2022/05/23 11:00:36;;;;;;;3.83;3.70;;;24.10;66.50;;;;;;5073718;28;20446;-67
2022/05/23 11:03:12;;;;;;;4.20;4.10;;;24.10;66.70;;;;;;5073613;28;20447;-68
2022/05/23 11:05:45;;;;;;;3.83;3.73;;;24.10;66.50;;;;;;5073536;28;20807;-68
2022/05/23 11:08:30;;;;;;;4.30;4.10;;;24.10;66.80;;;;;;5073358;28;20530;-68
2022/05/23 11:11:05;;;;;;;3.47;3.37;;;24.10;67.30;;;;;;5073506;28;20930;-68
2022/05/23 11:13:52;;;;;;;3.63;3.50;;;24.10;67.00;;;;;;5073465;28;20956;-68
2022/05/23 11:16:25;;;;;;;3.80;3.70;;;24.10;66.70;;;;;;5073291;28;20463;-68
2022/05/23 11:19:13;;;;;;;4.10;4.00;;;24.10;66.80;;;;;;5072775;28;20513;-68
2022/05/23 11:21:47;;;;;;;4.10;4.00;;;24.10;66.90;;;;;;5073283;28;20438;-68
2022/05/23 11:24:17;;;;;;;4.20;4.00;;;24.10;67.30;;;;;;5073745;28;20435;-68
2022/05/23 11:26:49;;;;;;;4.33;4.03;;;24.20;67.30;;;;;;5073341;28;20561;-67
2022/05/23 11:34:57;;;;;;;3.90;3.70;;;24.20;67.10;;;;;;5073422;28;20779;-68
2022/05/23 11:37:45;;;;;;;4.03;3.83;;;24.20;67.40;;;;;;5072636;28;20558;-68
2022/05/23 11:40:14;;;;;;;4.97;4.67;;;24.20;67.40;;;;;;5073180;28;20814;-68
2022/05/23 11:42:43;;;;;;;3.97;3.87;;;24.20;67.50;;;;;;5072785;28;20538;-69
2022/05/23 11:48:34;;;;;;;3.90;3.80;;;24.20;67.90;;;;;;5072641;28;20419;-68
2022/05/23 11:51:10;;;;;;;3.70;3.60;;;24.20;67.80;;;;;;5072618;28;20483;-68
2022/05/23 11:53:44;;;;;;;3.80;3.70;;;24.20;67.80;;;;;;5072780;28;20451;-68
2022/05/23 11:56:11;;;;;;;3.57;3.37;;;24.20;68.20;;;;;;5072521;28;20891;-68
2022/05/23 11:58:45;;;;;;;4.10;4.00;;;24.20;68.00;;;;;;5072179;28;20448;-68
2022/05/23 12:01:34;;;;;;;4.10;3.90;;;24.20;68.10;;;;;;5072989;28;20454;-68
2022/05/23 12:04:19;;;;;;;4.07;3.93;;;24.30;68.30;;;;;;5066876;28;20463;-68
2022/05/23 12:06:46;;;;;;;4.50;4.30;;;24.20;68.10;;;;;;5072159;28;20790;-67
2022/05/23 12:09:33;;;;;;;3.93;3.83;;;24.30;68.20;;;;;;5072322;28;20478;-67
2022/05/23 12:12:44;;;;;;;4.80;4.60;;;24.30;68.50;;;;;;5072099;28;20450;-68
2022/05/23 12:15:11;;;;;;;4.63;4.33;;;24.30;68.50;;;;;;5072295;28;20447;-67
2022/05/23 12:17:38;;;;;;;4.13;3.93;;;24.30;68.60;;;;;;5071867;28;20467;-67
2022/05/23 12:20:22;;;;;;;4.00;3.80;;;24.30;68.80;;;;;;5072326;28;20450;-68
2022/05/23 12:23:12;;;;;;;4.97;4.77;;;24.30;68.60;;;;;;5072257;28;20810;-68
2022/05/23 12:25:40;;;;;;;4.20;4.10;;;24.30;68.90;;;;;;5071888;28;20447;-68
2022/05/23 12:28:20;;;;;;;4.20;4.07;;;24.30;68.80;;;;;;5071801;28;20439;-68
2022/05/23 12:31:06;;;;;;;3.80;3.70;;;24.30;69.30;;;;;;5071206;28;20475;-68
2022/05/23 12:33:34;;;;;;;4.60;4.40;;;24.40;69.20;;;;;;5071908;28;20439;-67
2022/05/23 12:36:09;;;;;;;4.77;4.57;;;24.40;69.30;;;;;;5071839;28;20463;-67
2022/05/23 12:39:07;;;;;;;4.50;4.30;;;24.30;69.40;;;;;;5071712;28;20451;-68
2022/05/23 12:41:49;;;;;;;4.87;4.67;;;24.40;69.30;;;;;;5071911;28;20856;-68
2022/05/23 12:44:38;;;;;;;4.03;3.93;;;24.40;69.80;;;;;;5071965;28;20443;-67
2022/05/23 12:47:18;;;;;;;4.10;4.00;;;24.40;70.30;;;;;;5071497;28;20468;-68
2022/05/23 12:49:57;;;;;;;4.80;4.63;;;24.40;69.80;;;;;;5071699;28;20484;-68
2022/05/23 12:52:46;;;;;;;4.67;4.47;;;24.40;69.90;;;;;;5071703;28;20435;-68
2022/05/23 12:55:35;;;;;;;4.60;4.30;;;24.40;69.80;;;;;;5071650;28;20454;-68
2022/05/23 12:58:30;;;;;;;3.80;3.60;;;24.40;70.50;;;;;;5071418;28;20478;-68
2022/05/23 13:01:00;;;;;;;4.00;3.90;;;24.40;70.20;;;;;;5071629;28;20446;-67
2022/05/23 13:03:33;;;;;;;3.77;3.67;;;24.40;70.20;;;;;;5071663;28;20450;-68
2022/05/23 13:06:07;;;;;;;4.00;3.70;;;24.40;70.30;;;;;;5071540;28;20459;-67
2022/05/23 13:08:46;;;;;;;4.30;4.10;;;24.40;70.60;;;;;;5071456;28;20453;-67
2022/05/23 13:11:19;;;;;;;3.93;3.83;;;24.40;70.70;;;;;;5071313;28;20526;-67
2022/05/23 13:13:49;;;;;;;3.83;3.73;;;24.40;70.60;;;;;;5071479;28;20439;-68
2022/05/23 13:16:20;;;;;;;3.90;3.60;;;24.40;71.20;;;;;;5071629;28;20490;-68
2022/05/23 13:24:48;;;;;;;3.80;3.70;;;24.50;71.30;;;;;;5071454;28;20533;-67
2022/05/23 13:27:05;;;;;;;3.60;3.50;;;24.50;71.30;;;;;;5070840;28;20844;-68
2022/05/23 13:29:35;;;;;;;3.70;3.60;;;24.50;72.10;;;;;;5071223;28;20486;-67
2022/05/23 13:32:05;;;;;;;4.07;3.97;;;24.50;72.10;;;;;;5071194;28;20451;-68
2022/05/23 13:34:33;;;;;;;3.80;3.60;;;24.50;72.30;;;;;;5071234;28;20439;-67
2022/05/23 13:37:00;;;;;;;3.67;3.57;;;24.50;72.00;;;;;;5070970;28;20487;-67
2022/05/23 13:39:28;;;;;;;3.97;3.87;;;24.50;72.30;;;;;;5071015;28;20458;-68
2022/05/23 13:41:56;;;;;;;4.70;4.50;;;24.50;72.30;;;;;;5073011;28;20451;-68
2022/05/23 13:44:25;;;;;;;3.63;3.43;;;24.50;72.40;;;;;;5075077;28;20788;-68
2022/05/23 13:47:00;;;;;;;4.20;4.10;;;24.50;72.60;;;;;;5074845;28;20840;-67
2022/05/23 13:49:31;;;;;;;4.10;3.90;;;24.50;72.80;;;;;;5075020;28;20530;-67
2022/05/23 13:52:03;;;;;;;3.57;3.47;;;24.50;73.90;;;;;;5075062;28;20922;-67
2022/05/23 13:54:35;;;;;;;4.27;4.17;;;24.50;73.60;;;;;;5075105;28;20443;-67
2022/05/23 13:57:09;;;;;;;3.73;3.63;;;24.50;73.70;;;;;;5075012;28;20469;-67
2022/05/23 13:59:40;;;;;;;3.97;3.77;;;24.50;74.20;;;;;;5074814;28;20435;-67
2022/05/23 14:02:12;;;;;;;3.90;3.70;;;24.50;74.20;;;;;;5074817;28;20461;-68
2022/05/23 14:04:41;;;;;;;3.73;3.63;;;24.50;74.90;;;;;;5074697;28;21009;-67
2022/05/23 14:07:11;;;;;;;4.23;4.13;;;24.60;75.10;;;;;;5074458;28;20824;-68
2022/05/23 14:09:42;;;;;;;4.67;4.47;;;24.50;75.10;;;;;;5074379;28;20443;-68
2022/05/23 14:12:13;;;;;;;4.03;3.70;;;24.60;75.60;;;;;;5074669;28;20449;-67